Time;durP1;ratioP1;P1;durP2;ratioP2;P2;SDS_P1;SDS_P2;PMS_P1;PMS_P2;Temp;Humidity;BMP_temperature;BMP_pressure;BME280_temperature;BME280_humidity;BME280_pressure;Samples;Min_cycle;Max_cycle;Signal;HPM_P1;HPM_P2
2020/12/21 00:01:58;;;;;;;0.93;0.43;;;8.40;99.90;;;;;;5032730;28;20211;-85
2020/12/21 00:04:24;;;;;;;0.23;0.23;;;8.40;99.90;;;;;;5033355;28;20202;-84
2020/12/21 00:06:59;;;;;;;0.57;0.57;;;8.40;99.90;;;;;;5034341;28;20745;-84
2020/12/21 00:09:25;;;;;;;1.10;0.97;;;8.40;99.90;;;;;;5017234;28;20202;-84
2020/12/21 00:11:51;;;;;;;1.30;1.10;;;8.50;99.90;;;;;;5022648;28;20244;-83
2020/12/21 00:14:18;;;;;;;2.80;0.90;;;8.50;99.90;;;;;;5033843;28;20229;-84
2020/12/21 00:16:52;;;;;;;0.40;0.40;;;8.40;99.90;;;;;;5033901;28;20184;-84
2020/12/21 00:19:19;;;;;;;0.50;0.50;;;8.50;99.90;;;;;;5008295;28;20282;-83
2020/12/21 00:21:49;;;;;;;1.73;0.80;;;8.40;99.90;;;;;;5033065;28;20309;-85
2020/12/21 00:24:15;;;;;;;7.33;1.57;;;8.40;99.90;;;;;;5031997;28;20182;-84
2020/12/21 00:26:45;;;;;;;1.13;1.10;;;8.20;99.90;;;;;;5032393;28;20191;-84
2020/12/21 00:29:11;;;;;;;0.97;0.80;;;8.20;99.90;;;;;;5016147;28;20189;-84
2020/12/21 00:31:36;;;;;;;0.70;0.70;;;8.20;99.90;;;;;;5031216;28;20214;-83
2020/12/21 00:34:04;;;;;;;0.60;0.57;;;8.20;99.90;;;;;;5033086;28;20678;-84
2020/12/21 00:36:31;;;;;;;3.80;0.60;;;8.20;99.90;;;;;;5015446;28;20190;-84
2020/12/21 00:38:56;;;;;;;0.33;0.33;;;8.20;99.90;;;;;;5013941;28;20591;-84
2020/12/21 00:41:24;;;;;;;0.47;0.47;;;8.10;99.90;;;;;;5014768;28;20186;-84
2020/12/21 00:43:50;;;;;;;0.23;0.23;;;8.20;99.90;;;;;;5014503;28;20649;-85
2020/12/21 00:46:25;;;;;;;0.60;0.60;;;8.20;99.90;;;;;;5015446;28;20206;-84
2020/12/21 00:48:51;;;;;;;0.30;0.30;;;8.20;99.90;;;;;;5031664;28;20181;-84
2020/12/21 00:51:17;;;;;;;0.63;0.53;;;8.30;99.90;;;;;;5015309;28;20222;-84
2020/12/21 00:53:44;;;;;;;0.70;0.70;;;8.30;99.90;;;;;;5035004;28;20283;-84
2020/12/21 00:56:09;;;;;;;0.67;0.30;;;8.20;99.90;;;;;;5014867;28;20269;-84
2020/12/21 00:58:36;;;;;;;0.40;0.40;;;8.20;99.90;;;;;;5015339;28;20271;-84
2020/12/21 01:01:07;;;;;;;0.70;0.70;;;8.20;99.90;;;;;;5033592;28;20194;-84
2020/12/21 01:03:34;;;;;;;0.10;0.10;;;8.20;99.90;;;;;;5015933;28;20207;-84
2020/12/21 01:05:59;;;;;;;0.77;0.60;;;8.30;99.90;;;;;;5004094;28;20195;-84
2020/12/21 01:08:25;;;;;;;0.80;0.50;;;8.20;99.90;;;;;;5014531;28;20186;-83
2020/12/21 01:10:51;;;;;;;0.97;0.77;;;8.20;99.90;;;;;;5038302;28;20684;-85
2020/12/21 01:13:17;;;;;;;1.20;0.40;;;8.30;99.90;;;;;;5015139;28;20221;-84
2020/12/21 01:15:42;;;;;;;1.03;0.30;;;8.30;99.90;;;;;;5015307;28;20291;-84
2020/12/21 01:18:08;;;;;;;0.73;0.73;;;8.30;99.90;;;;;;5013756;28;20183;-85
2020/12/21 01:20:34;;;;;;;0.73;0.73;;;8.40;99.90;;;;;;5014243;28;20611;-85
2020/12/21 01:22:59;;;;;;;0.73;0.73;;;8.30;99.90;;;;;;5034297;28;20306;-85
2020/12/21 01:25:25;;;;;;;2.00;0.70;;;8.30;99.90;;;;;;5013984;28;20236;-84
2020/12/21 01:27:51;;;;;;;1.23;0.97;;;8.30;99.90;;;;;;5015112;28;20273;-85
2020/12/21 01:30:16;;;;;;;0.60;0.47;;;8.30;99.90;;;;;;5013934;28;20245;-83
2020/12/21 01:32:42;;;;;;;0.50;0.50;;;8.40;99.90;;;;;;5014809;28;20334;-84
2020/12/21 01:35:08;;;;;;;0.30;0.30;;;8.40;99.90;;;;;;5014383;28;20186;-85
2020/12/21 01:37:33;;;;;;;0.17;0.17;;;8.40;99.90;;;;;;5011202;28;20188;-85
2020/12/21 01:40:01;;;;;;;0.50;0.50;;;8.40;99.90;;;;;;5013341;28;20193;-84
2020/12/21 01:42:26;;;;;;;0.40;0.40;;;8.40;99.90;;;;;;5013911;28;20210;-85
2020/12/21 01:44:52;;;;;;;1.23;0.60;;;8.40;99.90;;;;;;5013722;28;20216;-85
2020/12/21 01:47:19;;;;;;;0.43;0.43;;;8.40;99.90;;;;;;5013556;28;20186;-85
2020/12/21 01:49:45;;;;;;;2.27;0.40;;;8.40;99.90;;;;;;5031850;28;20684;-85
2020/12/21 01:52:14;;;;;;;0.83;0.80;;;8.50;99.90;;;;;;5014066;28;20287;-85
2020/12/21 01:54:40;;;;;;;1.57;0.77;;;8.40;99.90;;;;;;5031941;28;20178;-84
2020/12/21 01:57:06;;;;;;;0.33;0.33;;;8.40;99.90;;;;;;5013828;28;20220;-84
2020/12/21 01:59:32;;;;;;;3.50;0.60;;;8.30;99.90;;;;;;5014083;28;20238;-84
2020/12/21 02:01:57;;;;;;;1.10;0.50;;;8.20;99.90;;;;;;5012458;28;20309;-85
2020/12/21 02:04:23;;;;;;;0.53;0.53;;;8.00;99.90;;;;;;5011637;28;20555;-84
2020/12/21 02:06:49;;;;;;;0.67;0.67;;;8.00;99.90;;;;;;5024583;28;20181;-85
2020/12/21 02:09:15;;;;;;;1.30;0.87;;;8.10;99.90;;;;;;5012819;28;20648;-84
2020/12/21 02:11:44;;;;;;;1.40;1.07;;;8.00;99.90;;;;;;5019936;28;20217;-84
2020/12/21 02:14:10;;;;;;;0.63;0.63;;;7.70;99.90;;;;;;5012751;28;20178;-84
2020/12/21 02:16:36;;;;;;;0.80;0.80;;;7.60;99.90;;;;;;5020735;28;20283;-84
2020/12/21 02:19:03;;;;;;;0.33;0.33;;;7.60;99.90;;;;;;5012380;28;20183;-84
2020/12/21 02:21:28;;;;;;;0.67;0.67;;;7.80;99.90;;;;;;5013503;28;20199;-85
2020/12/21 02:23:54;;;;;;;0.50;0.50;;;7.90;99.90;;;;;;5012732;28;20328;-85
2020/12/21 02:26:19;;;;;;;0.70;0.60;;;8.00;99.90;;;;;;5031709;28;20178;-84
2020/12/21 02:28:54;;;;;;;0.30;0.30;;;8.10;99.90;;;;;;5012985;28;20183;-85
2020/12/21 02:31:19;;;;;;;0.60;0.50;;;8.20;99.90;;;;;;5031218;28;20225;-84
2020/12/21 02:33:46;;;;;;;0.20;0.13;;;8.10;99.90;;;;;;5011190;28;20179;-84
2020/12/21 02:36:12;;;;;;;0.47;0.47;;;7.70;99.90;;;;;;5016889;28;20316;-84
2020/12/21 02:38:38;;;;;;;1.63;0.97;;;7.50;99.90;;;;;;5019221;28;20277;-84
2020/12/21 02:41:04;;;;;;;0.20;0.20;;;7.70;99.90;;;;;;5029311;28;20190;-85
2020/12/21 02:43:30;;;;;;;0.80;0.30;;;7.90;99.90;;;;;;5012969;28;20231;-85
2020/12/21 02:45:55;;;;;;;0.30;0.30;;;8.00;99.90;;;;;;5030545;28;20190;-84
2020/12/21 02:48:21;;;;;;;1.40;0.50;;;7.90;99.90;;;;;;5013684;28;20243;-84
2020/12/21 02:50:47;;;;;;;3.87;0.50;;;7.90;99.90;;;;;;5012295;28;20249;-84
2020/12/21 02:53:14;;;;;;;0.60;0.60;;;8.00;99.90;;;;;;5013133;28;20232;-84
2020/12/21 02:55:39;;;;;;;0.37;0.37;;;8.10;99.90;;;;;;5012847;28;20182;-84
2020/12/21 02:58:05;;;;;;;0.33;0.27;;;8.20;99.90;;;;;;5030977;28;20178;-84
2020/12/21 03:00:33;;;;;;;1.27;0.70;;;8.20;99.90;;;;;;5031222;28;20212;-84
2020/12/21 03:02:59;;;;;;;0.83;0.83;;;8.20;99.90;;;;;;5012939;28;20701;-84
2020/12/21 03:05:25;;;;;;;1.97;0.50;;;8.20;99.90;;;;;;5014929;28;20186;-85
2020/12/21 03:07:51;;;;;;;0.43;0.43;;;8.20;99.90;;;;;;5015888;28;20588;-84
2020/12/21 03:10:16;;;;;;;0.20;0.20;;;8.20;99.90;;;;;;5034550;28;20217;-84
2020/12/21 03:12:42;;;;;;;0.30;0.30;;;8.20;99.90;;;;;;5033718;28;20230;-84
2020/12/21 03:15:07;;;;;;;0.43;0.43;;;8.20;99.90;;;;;;5017181;28;20332;-84
2020/12/21 03:17:33;;;;;;;0.33;0.33;;;8.20;99.90;;;;;;5011005;28;20211;-84
2020/12/21 03:19:58;;;;;;;1.17;0.90;;;8.20;99.90;;;;;;5010574;28;20647;-83
2020/12/21 03:22:24;;;;;;;0.73;0.73;;;8.20;99.90;;;;;;5033084;28;20214;-84
2020/12/21 03:24:50;;;;;;;0.23;0.23;;;8.20;99.90;;;;;;5034687;28;20184;-85
2020/12/21 03:27:15;;;;;;;2.07;0.93;;;8.20;99.90;;;;;;5011678;28;20186;-84
2020/12/21 03:29:41;;;;;;;0.17;0.17;;;8.20;99.90;;;;;;5009929;28;20185;-83
2020/12/21 03:32:07;;;;;;;0.50;0.40;;;8.30;99.90;;;;;;5015858;28;20214;-84
2020/12/21 03:34:33;;;;;;;0.20;0.20;;;8.30;99.90;;;;;;5033474;28;20919;-84
2020/12/21 03:36:58;;;;;;;0.10;0.10;;;8.30;99.90;;;;;;5016871;28;20258;-84
2020/12/21 03:39:24;;;;;;;0.23;0.23;;;8.30;99.90;;;;;;5030328;28;20183;-84
2020/12/21 03:41:49;;;;;;;0.47;0.47;;;8.30;99.90;;;;;;5016620;28;20204;-85
2020/12/21 03:44:15;;;;;;;0.33;0.33;;;8.30;99.90;;;;;;5016147;28;20655;-84
2020/12/21 03:46:40;;;;;;;0.50;0.50;;;8.30;99.90;;;;;;5015260;28;20190;-83
2020/12/21 03:49:06;;;;;;;1.20;0.80;;;8.30;99.90;;;;;;5017071;28;20182;-84
2020/12/21 03:51:31;;;;;;;0.30;0.30;;;8.30;99.90;;;;;;5015399;28;20225;-85
2020/12/21 03:53:57;;;;;;;0.50;0.50;;;8.30;99.90;;;;;;5016739;28;20193;-84
2020/12/21 03:56:22;;;;;;;0.10;0.10;;;8.30;99.90;;;;;;5013611;28;20197;-84
2020/12/21 03:58:48;;;;;;;0.77;0.77;;;8.30;99.90;;;;;;5016194;28;20193;-84
2020/12/21 04:01:13;;;;;;;0.97;0.77;;;8.40;99.90;;;;;;5032735;28;20726;-85
2020/12/21 04:03:39;;;;;;;0.80;0.60;;;8.40;99.90;;;;;;5033540;28;20557;-84
2020/12/21 04:06:05;;;;;;;0.17;0.17;;;8.30;99.90;;;;;;5024878;28;20194;-85
2020/12/21 04:08:31;;;;;;;0.73;0.70;;;8.30;99.90;;;;;;5023068;28;20318;-85
2020/12/21 04:10:59;;;;;;;1.27;0.73;;;8.30;99.90;;;;;;5038436;28;20221;-84
2020/12/21 04:13:24;;;;;;;1.03;0.40;;;8.20;99.90;;;;;;5008907;28;20211;-85
2020/12/21 04:15:51;;;;;;;0.30;0.30;;;8.20;99.90;;;;;;5015673;28;20190;-84
2020/12/21 04:18:17;;;;;;;0.50;0.50;;;8.30;99.90;;;;;;5014997;28;20190;-83
2020/12/21 04:20:44;;;;;;;0.53;0.33;;;8.30;99.90;;;;;;5015482;28;20281;-85
2020/12/21 04:23:09;;;;;;;2.07;0.70;;;8.30;99.90;;;;;;5033843;28;20221;-85
2020/12/21 04:25:35;;;;;;;0.63;0.43;;;8.20;99.90;;;;;;5012050;28;20205;-86
2020/12/21 04:28:00;;;;;;;0.30;0.30;;;8.20;99.90;;;;;;5011129;28;20197;-85
2020/12/21 04:30:26;;;;;;;0.20;0.20;;;8.10;99.90;;;;;;5015186;28;20213;-85
2020/12/21 04:32:51;;;;;;;0.37;0.37;;;8.10;99.90;;;;;;5015095;28;20237;-85
2020/12/21 04:35:17;;;;;;;1.20;0.70;;;8.10;99.90;;;;;;5015487;28;20189;-84
2020/12/21 04:37:43;;;;;;;0.73;0.40;;;8.00;99.90;;;;;;5014960;28;20202;-84
2020/12/21 04:40:08;;;;;;;0.63;0.63;;;8.00;99.90;;;;;;5015670;28;20191;-85
2020/12/21 04:42:50;;;;;;;0.33;0.30;;;8.00;99.90;;;;;;5014950;28;20298;-85
2020/12/21 04:45:19;;;;;;;0.40;0.40;;;8.00;99.90;;;;;;5013381;28;20218;-85
2020/12/21 04:47:45;;;;;;;0.73;0.73;;;7.90;99.90;;;;;;5031145;28;20558;-85
2020/12/21 04:50:17;;;;;;;0.60;0.60;;;7.90;99.90;;;;;;5014155;28;20189;-84
2020/12/21 04:52:46;;;;;;;1.17;0.83;;;8.00;99.90;;;;;;5022158;28;20269;-85
2020/12/21 04:55:15;;;;;;;0.13;0.13;;;8.00;99.90;;;;;;5032892;28;20178;-84
2020/12/21 04:57:40;;;;;;;0.20;0.20;;;8.00;99.90;;;;;;5013700;28;20280;-85
2020/12/21 05:00:06;;;;;;;0.20;0.20;;;8.00;99.90;;;;;;5031873;28;20218;-85
2020/12/21 05:02:32;;;;;;;0.30;0.30;;;7.80;99.90;;;;;;5015339;28;20293;-85
2020/12/21 05:04:57;;;;;;;0.20;0.20;;;7.80;99.90;;;;;;5032370;28;20676;-85
2020/12/21 05:07:30;;;;;;;0.47;0.47;;;7.90;99.90;;;;;;5014828;28;20689;-85
2020/12/21 05:10:08;;;;;;;0.67;0.67;;;7.80;99.90;;;;;;5017858;28;20193;-84
2020/12/21 05:12:35;;;;;;;0.10;0.10;;;7.90;99.90;;;;;;5015279;28;20205;-85
2020/12/21 05:15:12;;;;;;;1.37;0.23;;;7.90;99.90;;;;;;5014932;28;20187;-85
2020/12/21 05:17:38;;;;;;;0.20;0.20;;;7.70;99.90;;;;;;5024076;28;20210;-85
2020/12/21 05:20:04;;;;;;;3.03;0.27;;;7.60;99.90;;;;;;5014523;28;20615;-85
2020/12/21 05:22:30;;;;;;;0.20;0.20;;;7.60;99.90;;;;;;5015370;28;20224;-85
2020/12/21 05:25:08;;;;;;;0.30;0.27;;;7.30;99.90;;;;;;5015473;28;20191;-85
2020/12/21 05:27:34;;;;;;;1.13;0.57;;;7.30;99.90;;;;;;5030877;28;20182;-85
2020/12/21 05:30:00;;;;;;;0.20;0.20;;;7.10;99.90;;;;;;5032122;28;20672;-86
2020/12/21 05:32:26;;;;;;;0.30;0.30;;;7.10;99.90;;;;;;5014015;28;20599;-86
2020/12/21 05:35:02;;;;;;;0.60;0.60;;;7.30;99.90;;;;;;5032960;28;20274;-85
2020/12/21 05:37:29;;;;;;;1.40;0.53;;;7.40;99.90;;;;;;5029092;28;20193;-85
2020/12/21 05:39:56;;;;;;;0.30;0.17;;;7.30;99.90;;;;;;5014609;28;20247;-85
2020/12/21 05:42:23;;;;;;;0.57;0.33;;;7.40;99.90;;;;;;5032511;28;20217;-84
2020/12/21 05:44:59;;;;;;;0.67;0.30;;;7.10;99.90;;;;;;5014686;28;20193;-83
2020/12/21 05:47:26;;;;;;;0.30;0.30;;;7.00;99.90;;;;;;5031736;28;20179;-84
2020/12/21 05:50:17;;;;;;;0.37;0.37;;;7.10;99.90;;;;;;5030652;28;20198;-84
2020/12/21 05:52:43;;;;;;;0.40;0.30;;;6.60;99.90;;;;;;5032246;28;20237;-86
2020/12/21 05:55:10;;;;;;;0.37;0.30;;;6.40;99.90;;;;;;5015469;28;20190;-84
2020/12/21 05:57:38;;;;;;;0.17;0.17;;;6.50;99.90;;;;;;5015714;28;20186;-85
2020/12/21 06:00:09;;;;;;;0.30;0.30;;;6.40;99.90;;;;;;5007047;28;20277;-84
2020/12/21 06:02:35;;;;;;;0.50;0.50;;;6.40;99.90;;;;;;5013903;28;20202;-84
2020/12/21 06:05:12;;;;;;;0.50;0.50;;;6.60;99.90;;;;;;5027012;28;20328;-84
2020/12/21 06:07:38;;;;;;;0.77;0.77;;;6.70;99.90;;;;;;5030531;28;20175;-84
2020/12/21 06:10:07;;;;;;;0.50;0.50;;;6.90;99.90;;;;;;5014688;28;20728;-85
2020/12/21 06:12:53;;;;;;;0.40;0.27;;;7.00;99.90;;;;;;5014270;28;20205;-84
2020/12/21 06:15:24;;;;;;;1.17;1.17;;;6.70;99.90;;;;;;5014675;28;20220;-84
2020/12/21 06:17:50;;;;;;;0.30;0.30;;;6.70;99.90;;;;;;5012794;28;20185;-83
2020/12/21 06:20:15;;;;;;;0.10;0.10;;;6.90;99.90;;;;;;5006034;28;20190;-83
2020/12/21 06:22:41;;;;;;;0.20;0.20;;;6.90;99.90;;;;;;5013548;28;20219;-82
2020/12/21 06:25:07;;;;;;;0.53;0.53;;;6.90;99.90;;;;;;5026669;28;20213;-83
2020/12/21 06:27:42;;;;;;;0.23;0.23;;;7.10;99.90;;;;;;5039209;28;20587;-83
2020/12/21 06:30:11;;;;;;;0.43;0.43;;;7.10;99.90;;;;;;5028676;28;20177;-82
2020/12/21 06:32:38;;;;;;;0.20;0.20;;;6.90;99.90;;;;;;5012310;28;20552;-83
2020/12/21 06:35:17;;;;;;;0.70;0.27;;;7.00;99.90;;;;;;5025131;28;20178;-83
2020/12/21 06:37:57;;;;;;;1.40;0.43;;;7.00;99.90;;;;;;5019390;28;20180;-83
2020/12/21 06:40:33;;;;;;;0.33;0.33;;;7.00;99.90;;;;;;5012071;28;20237;-83
2020/12/21 06:43:14;;;;;;;0.40;0.40;;;7.20;99.90;;;;;;5034591;28;20209;-83
2020/12/21 06:45:40;;;;;;;0.17;0.17;;;7.10;99.90;;;;;;5020566;28;20650;-83
2020/12/21 06:48:08;;;;;;;0.93;0.40;;;6.80;99.90;;;;;;5020807;28;20193;-85
2020/12/21 06:50:34;;;;;;;0.43;0.43;;;6.70;99.90;;;;;;5026215;28;20206;-85
2020/12/21 06:52:59;;;;;;;0.17;0.17;;;6.70;99.90;;;;;;5013576;28;20237;-85
2020/12/21 06:55:38;;;;;;;0.20;0.20;;;6.90;99.90;;;;;;5031167;28;20177;-85
2020/12/21 06:58:03;;;;;;;0.43;0.43;;;7.10;99.90;;;;;;5028362;28;20231;-84
2020/12/21 07:00:29;;;;;;;0.33;0.33;;;7.10;99.90;;;;;;5025397;28;20182;-84
2020/12/21 07:02:55;;;;;;;0.33;0.20;;;7.20;99.90;;;;;;5017634;28;20206;-85
2020/12/21 07:05:20;;;;;;;0.60;0.60;;;7.10;99.90;;;;;;5034685;28;20198;-85
2020/12/21 07:07:57;;;;;;;0.67;0.67;;;6.70;99.90;;;;;;5037121;28;20193;-84
2020/12/21 07:10:22;;;;;;;0.63;0.63;;;6.90;99.90;;;;;;5027660;28;20258;-84
2020/12/21 07:12:51;;;;;;;0.10;0.10;;;7.10;99.90;;;;;;5023535;28;20206;-84
2020/12/21 07:15:21;;;;;;;0.53;0.47;;;6.90;99.90;;;;;;5033731;28;20201;-85
2020/12/21 07:17:46;;;;;;;0.20;0.20;;;6.70;99.90;;;;;;5019423;28;20188;-84
2020/12/21 07:20:12;;;;;;;0.30;0.30;;;6.90;99.90;;;;;;5020988;28;20266;-85
2020/12/21 07:22:38;;;;;;;0.57;0.50;;;7.00;99.90;;;;;;5042411;28;20217;-85
2020/12/21 07:25:03;;;;;;;0.33;0.30;;;6.70;99.90;;;;;;5018283;28;20244;-85
2020/12/21 07:27:31;;;;;;;0.10;0.10;;;6.80;99.90;;;;;;5015206;28;20232;-85
2020/12/21 07:29:57;;;;;;;0.30;0.30;;;6.80;99.90;;;;;;5009372;28;20692;-83
2020/12/21 07:32:27;;;;;;;0.27;0.27;;;7.00;99.90;;;;;;5010908;28;20297;-82
2020/12/21 07:34:53;;;;;;;0.20;0.20;;;7.00;99.90;;;;;;5030229;28;20186;-83
2020/12/21 07:37:18;;;;;;;0.23;0.23;;;6.60;99.90;;;;;;5011033;28;20328;-83
2020/12/21 07:39:44;;;;;;;0.30;0.30;;;6.50;99.90;;;;;;5009377;28;20193;-83
2020/12/21 07:42:14;;;;;;;0.20;0.20;;;6.50;99.90;;;;;;5029594;28;20212;-82
2020/12/21 07:44:48;;;;;;;0.30;0.30;;;6.30;99.90;;;;;;5028694;28;20194;-84
2020/12/21 07:47:24;;;;;;;0.60;0.60;;;6.30;99.90;;;;;;5028747;28;20220;-84
2020/12/21 07:49:50;;;;;;;0.40;0.30;;;6.20;99.90;;;;;;5027256;28;20190;-84
2020/12/21 07:52:18;;;;;;;0.30;0.30;;;6.20;99.90;;;;;;5008553;28;20220;-83
2020/12/21 07:54:44;;;;;;;0.10;0.10;;;6.10;99.90;;;;;;5015665;28;20196;-83
2020/12/21 07:57:12;;;;;;;0.30;0.30;;;6.40;99.90;;;;;;5015525;28;20188;-83
2020/12/21 07:59:37;;;;;;;0.27;0.27;;;6.60;99.90;;;;;;5015111;28;20186;-84
2020/12/21 08:02:05;;;;;;;0.27;0.27;;;6.40;99.90;;;;;;5012315;28;20234;-83
2020/12/21 08:04:31;;;;;;;0.83;0.50;;;6.20;99.90;;;;;;5015625;28;20250;-83
2020/12/21 08:07:06;;;;;;;1.90;1.27;;;6.00;99.90;;;;;;5032406;28;20190;-85
2020/12/21 08:09:32;;;;;;;0.83;0.43;;;5.90;99.90;;;;;;5008554;28;20255;-86
2020/12/21 08:11:59;;;;;;;0.30;0.30;;;6.00;99.90;;;;;;5028631;28;20214;-83
2020/12/21 08:14:25;;;;;;;0.57;0.57;;;5.90;99.90;;;;;;5018545;28;20532;-84
2020/12/21 08:16:50;;;;;;;0.57;0.57;;;6.00;99.90;;;;;;5033362;28;20186;-84
2020/12/21 08:19:22;;;;;;;1.17;0.60;;;6.00;99.90;;;;;;5023197;28;20189;-83
2020/12/21 08:21:49;;;;;;;0.27;0.27;;;6.10;99.90;;;;;;5018043;28;20221;-84
2020/12/21 08:24:15;;;;;;;0.37;0.37;;;6.00;99.90;;;;;;5034994;28;20177;-84
2020/12/21 08:26:40;;;;;;;0.33;0.33;;;6.00;99.90;;;;;;5017510;28;20193;-83
2020/12/21 08:29:06;;;;;;;0.70;0.70;;;6.20;99.90;;;;;;5017438;28;20260;-83
2020/12/21 08:31:41;;;;;;;0.73;0.73;;;6.10;99.90;;;;;;5016872;28;20217;-84
2020/12/21 08:34:07;;;;;;;0.80;0.80;;;6.20;99.90;;;;;;5016813;28;20243;-84
2020/12/21 08:36:38;;;;;;;0.30;0.30;;;6.50;99.90;;;;;;5016942;28;20724;-84
2020/12/21 08:39:23;;;;;;;0.20;0.20;;;6.60;99.90;;;;;;5016685;28;20289;-84
2020/12/21 08:41:58;;;;;;;0.87;0.43;;;6.70;99.90;;;;;;5005059;28;20352;-84
2020/12/21 08:44:25;;;;;;;1.63;0.63;;;6.60;99.90;;;;;;5016886;28;20277;-84
2020/12/21 08:46:55;;;;;;;0.83;0.50;;;6.70;99.90;;;;;;5005159;28;20734;-83
2020/12/21 08:49:22;;;;;;;3.00;0.57;;;6.80;99.90;;;;;;5017661;28;20657;-84
2020/12/21 08:51:48;;;;;;;0.33;0.33;;;6.70;99.90;;;;;;5034352;28;20233;-84
2020/12/21 08:54:14;;;;;;;0.73;0.73;;;6.60;99.90;;;;;;5017294;28;20189;-84
2020/12/21 08:56:44;;;;;;;0.23;0.23;;;6.50;99.90;;;;;;5033638;28;20183;-84
2020/12/21 08:59:10;;;;;;;0.50;0.50;;;6.50;99.90;;;;;;5034626;28;20265;-84
2020/12/21 09:01:42;;;;;;;1.10;0.63;;;6.40;99.90;;;;;;5015378;28;20288;-84
2020/12/21 09:04:08;;;;;;;1.23;0.50;;;6.50;99.90;;;;;;5033951;28;20185;-84
2020/12/21 09:06:34;;;;;;;0.30;0.30;;;6.60;99.90;;;;;;5016002;28;20563;-84
2020/12/21 09:09:00;;;;;;;0.43;0.37;;;6.60;99.90;;;;;;5015151;28;20186;-84
2020/12/21 09:11:26;;;;;;;0.10;0.10;;;6.60;99.90;;;;;;5021534;28;20687;-85
2020/12/21 09:13:52;;;;;;;1.93;0.50;;;6.60;99.90;;;;;;5033594;28;20194;-84
2020/12/21 09:16:20;;;;;;;0.20;0.20;;;6.60;99.90;;;;;;5033406;28;20186;-84
2020/12/21 09:18:46;;;;;;;0.47;0.30;;;7.00;99.90;;;;;;5015086;28;20191;-84
2020/12/21 09:21:41;;;;;;;0.30;0.30;;;7.20;99.90;;;;;;5031260;28;20194;-83
2020/12/21 09:24:07;;;;;;;0.33;0.30;;;7.40;99.90;;;;;;4988033;28;20293;-84
2020/12/21 09:26:32;;;;;;;4.00;1.47;;;7.20;99.90;;;;;;5010362;28;20355;-84
2020/12/21 09:28:58;;;;;;;0.27;0.27;;;7.40;99.90;;;;;;5028959;28;20193;-83
2020/12/21 09:31:24;;;;;;;2.93;0.73;;;7.10;99.90;;;;;;5030298;28;20198;-82
2020/12/21 09:33:50;;;;;;;1.33;0.67;;;7.10;99.90;;;;;;5013732;28;20873;-83
2020/12/21 09:36:17;;;;;;;0.70;0.70;;;7.20;99.90;;;;;;5013155;28;20182;-83
2020/12/21 09:38:47;;;;;;;0.60;0.60;;;7.30;99.90;;;;;;5030136;28;20196;-83
2020/12/21 09:41:18;;;;;;;0.57;0.57;;;7.40;99.90;;;;;;5030493;28;20174;-83
2020/12/21 09:43:48;;;;;;;0.37;0.37;;;7.50;99.90;;;;;;5013724;28;20566;-84
2020/12/21 09:46:23;;;;;;;1.27;0.63;;;7.60;99.90;;;;;;5028538;28;20248;-82
2020/12/21 09:48:53;;;;;;;0.50;0.50;;;7.60;99.90;;;;;;5028847;28;20184;-84
2020/12/21 09:51:19;;;;;;;0.70;0.33;;;7.80;99.90;;;;;;5030347;28;20202;-83
2020/12/21 09:53:45;;;;;;;0.67;0.67;;;7.40;99.90;;;;;;5027494;28;20693;-85
2020/12/21 09:56:16;;;;;;;1.00;0.60;;;7.40;99.90;;;;;;5011921;28;20186;-84
2020/12/21 09:58:44;;;;;;;0.23;0.23;;;7.50;99.90;;;;;;5009835;28;20180;-84
2020/12/21 10:01:09;;;;;;;0.87;0.57;;;7.60;99.90;;;;;;5025838;28;20193;-83
2020/12/21 10:03:41;;;;;;;0.47;0.47;;;7.50;99.90;;;;;;5013027;28;20210;-83
2020/12/21 10:06:08;;;;;;;0.70;0.60;;;7.70;99.90;;;;;;5012774;28;20186;-83
2020/12/21 10:08:34;;;;;;;1.23;0.93;;;7.50;99.90;;;;;;5011803;28;20683;-83
2020/12/21 10:10:59;;;;;;;3.17;0.80;;;7.10;99.90;;;;;;5037194;28;20202;-82
2020/12/21 10:13:25;;;;;;;0.93;0.50;;;7.30;99.90;;;;;;5029234;28;20202;-83
2020/12/21 10:15:50;;;;;;;0.77;0.60;;;7.30;99.90;;;;;;5013195;28;20690;-83
2020/12/21 10:18:16;;;;;;;0.40;0.30;;;7.60;99.90;;;;;;5031030;28;20653;-83
2020/12/21 10:20:43;;;;;;;0.70;0.70;;;7.50;99.90;;;;;;5029933;28;20193;-83
2020/12/21 10:23:10;;;;;;;0.53;0.53;;;7.40;99.90;;;;;;5014360;28;20741;-83
2020/12/21 10:25:36;;;;;;;2.07;1.60;;;7.70;99.90;;;;;;5012108;28;20190;-82
2020/12/21 10:28:01;;;;;;;0.63;0.57;;;8.00;99.90;;;;;;5029694;28;20193;-83
2020/12/21 10:30:28;;;;;;;0.30;0.23;;;7.90;99.90;;;;;;5011029;28;20207;-82
2020/12/21 10:32:54;;;;;;;0.40;0.40;;;8.00;99.90;;;;;;5012205;28;20829;-83
2020/12/21 10:35:20;;;;;;;0.17;0.17;;;8.20;99.90;;;;;;5009268;28;20193;-83
2020/12/21 10:37:46;;;;;;;2.77;0.60;;;8.10;99.90;;;;;;5025402;28;20174;-83
2020/12/21 10:40:11;;;;;;;0.23;0.23;;;8.20;99.90;;;;;;5012960;28;20541;-83
2020/12/21 10:42:37;;;;;;;0.53;0.53;;;8.30;99.90;;;;;;5012340;28;20204;-84
2020/12/21 10:45:03;;;;;;;0.30;0.30;;;8.40;99.90;;;;;;5012231;28;20183;-83
2020/12/21 10:47:30;;;;;;;2.20;1.00;;;8.30;99.90;;;;;;5010494;28;20198;-84
2020/12/21 10:49:55;;;;;;;1.40;0.87;;;7.90;99.90;;;;;;5028871;28;20719;-84
2020/12/21 10:52:21;;;;;;;0.40;0.40;;;8.00;99.90;;;;;;5029684;28;20291;-84
2020/12/21 10:54:46;;;;;;;0.87;0.83;;;7.70;99.90;;;;;;5010949;28;20204;-83
2020/12/21 10:57:12;;;;;;;1.17;0.87;;;7.80;99.90;;;;;;5013110;28;20193;-84
2020/12/21 10:59:37;;;;;;;3.77;1.33;;;7.80;99.90;;;;;;5008062;28;20182;-83
2020/12/21 11:02:03;;;;;;;0.60;0.57;;;7.90;99.90;;;;;;5019966;28;20318;-84
2020/12/21 11:04:29;;;;;;;0.57;0.57;;;7.80;99.90;;;;;;5023729;28;20210;-83
2020/12/21 11:06:55;;;;;;;1.07;0.83;;;7.60;99.90;;;;;;5010508;28;20190;-83
2020/12/21 11:09:21;;;;;;;1.73;0.67;;;7.30;99.90;;;;;;5009923;28;20189;-83
2020/12/21 11:11:46;;;;;;;1.13;0.90;;;7.50;99.90;;;;;;5009429;28;20222;-82
2020/12/21 11:14:12;;;;;;;0.30;0.30;;;7.60;99.90;;;;;;5001509;28;20737;-83
2020/12/21 11:16:37;;;;;;;0.50;0.50;;;7.80;99.90;;;;;;5026179;28;20678;-82
2020/12/21 11:19:03;;;;;;;1.77;0.80;;;7.60;99.90;;;;;;5004971;28;20179;-82
2020/12/21 11:21:35;;;;;;;1.83;0.93;;;7.60;99.90;;;;;;5009173;28;20190;-83
2020/12/21 11:24:01;;;;;;;0.90;0.83;;;7.50;99.90;;;;;;5017662;28;20182;-82
2020/12/21 11:26:26;;;;;;;0.30;0.30;;;7.60;99.90;;;;;;5025617;28;20686;-83
2020/12/21 11:28:52;;;;;;;1.83;1.73;;;7.60;99.90;;;;;;5031142;28;20717;-84
2020/12/21 11:31:17;;;;;;;1.53;1.00;;;7.70;99.90;;;;;;5009872;28;21020;-83
2020/12/21 11:33:44;;;;;;;1.03;0.77;;;7.80;99.90;;;;;;5014640;28;20628;-83
2020/12/21 11:36:11;;;;;;;0.50;0.50;;;8.10;99.90;;;;;;5032876;28;20202;-82
2020/12/21 11:38:37;;;;;;;7.40;1.07;;;8.40;99.90;;;;;;5014070;28;20222;-83
2020/12/21 11:41:05;;;;;;;0.73;0.50;;;8.40;99.90;;;;;;5029988;28;20282;-82
2020/12/21 11:43:31;;;;;;;0.60;0.60;;;8.60;99.90;;;;;;5020150;28;20205;-83
2020/12/21 11:45:56;;;;;;;0.60;0.60;;;8.50;99.90;;;;;;5018815;28;20190;-82
2020/12/21 11:48:22;;;;;;;1.40;1.00;;;8.80;99.90;;;;;;5020526;28;20217;-83
2020/12/21 11:50:48;;;;;;;1.27;0.57;;;8.90;99.90;;;;;;5017679;28;20229;-83
2020/12/21 11:53:13;;;;;;;1.17;1.00;;;8.90;99.90;;;;;;5042386;28;20194;-83
2020/12/21 11:55:39;;;;;;;0.40;0.40;;;9.00;99.90;;;;;;5034742;28;20201;-82
2020/12/21 11:58:04;;;;;;;1.37;0.50;;;9.20;99.90;;;;;;5036188;28;20186;-82
2020/12/21 12:00:30;;;;;;;1.37;1.17;;;9.10;99.90;;;;;;5029275;28;20192;-83
2020/12/21 12:02:56;;;;;;;2.20;1.10;;;9.20;99.90;;;;;;5018987;28;20215;-83
2020/12/21 12:05:21;;;;;;;0.67;0.47;;;9.30;99.90;;;;;;5017585;28;20241;-83
2020/12/21 12:07:47;;;;;;;0.57;0.40;;;9.30;99.90;;;;;;5025011;28;20190;-83
2020/12/21 12:10:12;;;;;;;2.03;1.07;;;9.40;99.90;;;;;;5023305;28;20193;-84
2020/12/21 12:12:38;;;;;;;0.37;0.37;;;9.40;99.90;;;;;;5030135;28;20235;-83
2020/12/21 12:15:04;;;;;;;1.70;0.63;;;9.50;99.90;;;;;;5020520;28;20710;-82
2020/12/21 12:17:30;;;;;;;1.13;1.07;;;9.60;99.90;;;;;;5010868;28;20234;-83
2020/12/21 12:19:55;;;;;;;1.47;0.70;;;9.70;99.90;;;;;;5028323;28;20187;-83
2020/12/21 12:22:21;;;;;;;0.30;0.30;;;9.60;99.90;;;;;;5033203;28;20284;-84
2020/12/21 12:24:47;;;;;;;0.30;0.30;;;9.70;99.90;;;;;;5012310;28;20271;-83
2020/12/21 12:27:12;;;;;;;0.97;0.97;;;9.90;99.90;;;;;;5037172;28;20186;-82
2020/12/21 12:29:38;;;;;;;3.30;0.63;;;10.00;99.90;;;;;;5031621;28;20191;-83
2020/12/21 12:32:03;;;;;;;0.43;0.43;;;10.00;99.90;;;;;;5012950;28;20224;-82
2020/12/21 12:34:29;;;;;;;1.17;1.17;;;10.00;99.90;;;;;;5029492;28;20195;-83
2020/12/21 12:36:54;;;;;;;1.60;1.17;;;10.10;99.90;;;;;;5006860;28;20188;-82
2020/12/21 12:39:20;;;;;;;2.77;1.67;;;9.70;99.90;;;;;;5026352;28;20271;-83
2020/12/21 12:41:46;;;;;;;6.43;0.47;;;9.90;99.90;;;;;;5011890;28;20212;-84
2020/12/21 12:44:12;;;;;;;0.90;0.87;;;10.10;99.90;;;;;;5021138;28;20195;-83
2020/12/21 12:46:38;;;;;;;0.47;0.43;;;10.20;99.90;;;;;;5030446;28;20199;-82
2020/12/21 12:49:06;;;;;;;0.63;0.63;;;10.40;99.90;;;;;;5029907;28;20230;-82
2020/12/21 12:51:33;;;;;;;1.37;0.63;;;10.50;99.90;;;;;;5031145;28;20208;-84
2020/12/21 12:53:59;;;;;;;0.90;0.73;;;10.50;99.90;;;;;;5013669;28;20198;-83
2020/12/21 12:56:24;;;;;;;2.50;0.80;;;10.60;99.90;;;;;;5027931;28;20555;-83
2020/12/21 12:58:50;;;;;;;0.40;0.40;;;10.50;99.90;;;;;;5009754;28;20708;-84